sim
Sign-in with your pilot id or email,
or register
Callsign
Passwort

Schedule Details

Flight Number: EWG7274 (4)
Departure: Hamburg Airport (EDDH) at 08:30
Arrival: Salzburg Airport (LOWS) at 09:55
Route: Eurowings Passenger Schedule. Enter filed route here before submitting Pirep.

Weather Information
Getting current METAR information for EDDH 241350Z 17005KT 9999 FEW011 BKN014 03/01 Q0997 TEMPO 4500 -RASN
Getting current METAR information for LOWS 241350Z 30015KT 9999 FEW040 02/M07 Q1000 NOSIG

Schedule Frequency

Route Map